createdAt,value
2022-09-17T00:04:31.906Z,26
2022-09-17T00:09:45.009Z,27
2022-09-17T00:14:57.426Z,28
2022-09-17T00:20:09.766Z,28
2022-09-17T00:25:22.555Z,28
2022-09-17T00:30:34.636Z,26
2022-09-17T00:35:46.767Z,27
2022-09-17T00:40:59.477Z,26
2022-09-17T00:46:11.675Z,25
2022-09-17T00:51:23.927Z,25
2022-09-17T01:01:46.643Z,22
2022-09-17T01:06:58.467Z,21
2022-09-17T01:12:10.516Z,21
2022-09-17T01:17:23.291Z,20
2022-09-17T01:22:35.267Z,19
2022-09-17T01:27:47.377Z,19
2022-09-17T01:32:59.841Z,19
2022-09-17T01:38:12.083Z,19
2022-09-17T01:43:24.136Z,19
2022-09-17T01:48:36.629Z,18
2022-09-17T01:53:48.514Z,18
2022-09-17T01:59:00.748Z,18
2022-09-17T02:04:13.135Z,18
2022-09-17T02:09:25.151Z,17
2022-09-17T02:14:37.059Z,17
2022-09-17T02:19:49.602Z,17
2022-09-17T02:25:01.573Z,17
2022-09-17T02:30:13.625Z,16
2022-09-17T02:35:26.005Z,16
2022-09-17T02:40:38.192Z,16
2022-09-17T02:45:50.130Z,16
2022-09-17T02:51:02.697Z,16
2022-09-17T02:56:14.635Z,15
2022-09-17T03:01:26.441Z,15
2022-09-17T03:06:39.018Z,15
2022-09-17T03:11:50.797Z,15
2022-09-17T03:17:02.707Z,15
2022-09-17T03:22:15.373Z,15
2022-09-17T03:27:27.198Z,15
2022-09-17T03:32:39.168Z,15
2022-09-17T03:37:51.669Z,16
2022-09-17T03:43:03.558Z,16
2022-09-17T03:48:15.539Z,16
2022-09-17T03:53:27.998Z,16
2022-09-17T03:58:39.910Z,16
2022-09-17T04:03:51.869Z,16
2022-09-17T04:09:04.265Z,16
2022-09-17T04:14:16.227Z,16
2022-09-17T04:19:28.288Z,16
2022-09-17T04:24:41.076Z,15
2022-09-17T04:29:52.981Z,16
2022-09-17T04:35:04.901Z,16
2022-09-17T04:40:17.773Z,16
2022-09-17T04:45:29.770Z,16
2022-09-17T04:50:41.994Z,16
2022-09-17T04:55:54.588Z,16
2022-09-17T05:01:06.841Z,16
2022-09-17T05:06:18.928Z,16
2022-09-17T05:11:31.571Z,16
2022-09-17T05:16:43.757Z,16
2022-09-17T05:21:55.791Z,16
2022-09-17T05:27:08.364Z,16
2022-09-17T05:32:20.537Z,16
2022-09-17T05:37:32.589Z,16
2022-09-17T05:42:45.281Z,16
2022-09-17T05:47:57.178Z,16
2022-09-17T05:53:09.850Z,16
2022-09-17T05:58:22.709Z,16
2022-09-17T06:03:35.047Z,17
2022-09-17T06:08:47.647Z,17
2022-09-17T06:14:00.713Z,17
2022-09-17T06:19:12.938Z,18
2022-09-17T06:24:25.329Z,19
2022-09-17T06:29:38.399Z,21
2022-09-17T06:34:51.183Z,20
2022-09-17T06:40:03.796Z,20
2022-09-17T06:45:18.217Z,20
2022-09-17T06:50:29.892Z,20
2022-09-17T06:55:42.127Z,20
2022-09-17T07:00:55.246Z,20
2022-09-17T07:06:07.906Z,21
2022-09-17T07:11:20.334Z,21
2022-09-17T07:16:33.633Z,22
2022-09-17T07:21:46.413Z,24
2022-09-17T07:26:59.188Z,24
2022-09-17T07:32:12.180Z,25
2022-09-17T07:37:24.603Z,24
2022-09-17T07:42:37.417Z,25
2022-09-17T07:47:50.224Z,25
2022-09-17T07:53:02.371Z,22
2022-09-17T07:58:16.826Z,22
2022-09-17T08:03:29.210Z,22
2022-09-17T08:08:41.514Z,23
2022-09-17T08:45:01.095Z,13
2022-09-17T08:50:10.952Z,9
2022-09-17T08:55:22.716Z,7
2022-09-17T09:00:35.112Z,6
2022-09-17T09:52:15.615Z,1
2022-09-17T09:57:27.796Z,1
2022-09-17T10:02:40.519Z,0
2022-09-17T10:07:53.686Z,0
2022-09-17T10:13:05.963Z,0
2022-09-17T10:18:18.080Z,0
2022-09-17T10:23:30.320Z,0
2022-09-17T10:28:41.936Z,2
2022-09-17T10:33:54.134Z,3
2022-09-17T10:39:06.745Z,3
2022-09-17T10:44:18.296Z,3
2022-09-17T10:49:30.433Z,4
2022-09-17T10:54:42.589Z,4
2022-09-17T10:59:54.205Z,4
2022-09-17T11:05:06.408Z,6
2022-09-17T11:10:18.986Z,7
2022-09-17T11:15:31.021Z,7
2022-09-17T11:20:43.929Z,8
2022-09-17T11:26:02.080Z,10
2022-09-17T11:31:25.658Z,15
2022-09-17T11:47:04.306Z,17
2022-09-17T11:52:16.457Z,18
2022-09-17T11:57:29.500Z,28
2022-09-17T12:07:55.764Z,33
2022-09-17T12:13:07.870Z,38
2022-09-17T12:18:34.292Z,85
2022-09-17T12:23:44.290Z,82
2022-09-17T12:28:56.704Z,83
2022-09-17T12:39:19.634Z,84
2022-09-17T13:05:12.146Z,86
2022-09-17T13:10:26.040Z,87
2022-09-17T13:15:40.332Z,82
2022-09-17T13:20:54.134Z,79
2022-09-17T13:31:17.683Z,78
2022-09-17T13:41:39.841Z,80
2022-09-17T14:07:32.824Z,86
2022-09-17T14:12:45.120Z,85
2022-09-17T14:17:58.077Z,84
2022-09-17T14:23:10.812Z,83
2022-09-17T14:28:23.097Z,82
2022-09-17T14:33:35.503Z,78
2022-09-17T14:38:48.843Z,77
2022-09-17T14:44:01.225Z,76
2022-09-17T14:49:13.702Z,73
2022-09-17T14:54:27.091Z,74
2022-09-17T14:59:40.631Z,74
2022-09-17T15:04:52.953Z,73
2022-09-17T15:10:05.646Z,74
2022-09-17T15:20:27.730Z,74
2022-09-17T15:25:51.569Z,74
2022-09-17T15:31:04.058Z,76
2022-09-17T15:36:17.247Z,74
2022-09-17T15:41:29.897Z,76
2022-09-17T15:51:51.826Z,78
2022-09-17T15:57:08.058Z,78
2022-09-17T16:02:21.080Z,78
2022-09-17T16:07:33.347Z,81
2022-09-17T16:12:46.614Z,80
2022-09-17T16:17:59.676Z,79
2022-09-17T16:23:11.780Z,80
2022-09-17T16:28:25.176Z,80
2022-09-17T16:33:37.399Z,81
2022-09-17T16:38:49.978Z,84
2022-09-17T16:44:02.377Z,84
2022-09-17T16:49:14.476Z,85
2022-09-17T16:54:26.636Z,87
2022-09-17T16:59:39.555Z,86
2022-09-17T17:04:52.864Z,86
2022-09-17T17:10:04.537Z,88
2022-09-17T17:15:17.038Z,89
2022-09-17T17:20:29.291Z,90
2022-09-17T17:25:41.155Z,91
2022-09-17T17:30:53.795Z,91
2022-09-17T17:36:09.354Z,91
2022-09-17T17:41:23.357Z,92
2022-09-17T17:46:36.239Z,91
2022-09-17T17:51:48.163Z,92
2022-09-17T17:57:00.294Z,92
2022-09-17T18:02:13.594Z,92
2022-09-17T18:07:25.578Z,92
2022-09-17T18:12:38.083Z,92
2022-09-17T18:23:02.722Z,92
2022-09-17T18:28:15.410Z,91
2022-09-17T18:33:28.169Z,89
2022-09-17T18:38:40.094Z,86
2022-09-17T18:43:52.737Z,86
2022-09-17T18:49:19.876Z,84
2022-09-17T18:54:31.892Z,80
2022-09-17T18:59:44.047Z,78
2022-09-17T19:04:56.857Z,79
2022-09-17T19:10:08.749Z,80
2022-09-17T19:15:20.590Z,76
2022-09-17T19:20:33.638Z,73
2022-09-17T19:30:57.747Z,69
2022-09-17T19:36:20.001Z,68
2022-09-17T19:41:55.155Z,66
2022-09-17T19:47:05.095Z,63
2022-09-17T19:52:17.282Z,64
2022-09-17T19:57:29.594Z,65
2022-09-17T20:02:42.316Z,64
2022-09-17T20:07:54.416Z,62
2022-09-17T20:13:06.426Z,59
2022-09-17T20:18:24.695Z,55
2022-09-17T20:23:40.660Z,53
2022-09-17T20:34:02.841Z,43
2022-09-17T20:39:24.780Z,41
2022-09-17T20:44:34.771Z,40
2022-09-17T20:49:47.240Z,35
2022-09-17T20:54:59.633Z,26
2022-09-17T21:00:11.726Z,24
2022-09-17T21:05:24.235Z,24
2022-09-17T21:10:37.046Z,25
2022-09-17T21:15:49.184Z,30
2022-09-17T21:21:01.392Z,33
2022-09-17T21:26:13.706Z,34
2022-09-17T21:31:34.187Z,34
2022-09-17T21:36:45.131Z,35
2022-09-17T21:41:56.783Z,35
2022-09-17T21:47:13.151Z,34
2022-09-17T21:52:26.249Z,32
2022-09-17T21:57:38.309Z,32
2022-09-17T22:02:50.550Z,31
2022-09-17T22:08:02.759Z,30
2022-09-17T22:13:15.072Z,29
2022-09-17T22:18:26.919Z,28
2022-09-17T22:23:39.119Z,26
2022-09-17T22:28:51.199Z,24
2022-09-17T22:34:03.528Z,23
2022-09-17T22:39:15.506Z,21
2022-09-17T22:44:27.289Z,21
2022-09-17T22:49:40.332Z,20
2022-09-17T22:54:52.407Z,20
2022-09-17T23:00:19.572Z,18
2022-09-17T23:05:29.577Z,18
2022-09-17T23:10:43.651Z,19
2022-09-17T23:15:55.538Z,19
2022-09-17T23:21:07.290Z,19
2022-09-17T23:26:19.405Z,19
2022-09-17T23:31:31.764Z,18
2022-09-17T23:36:43.571Z,19
2022-09-17T23:41:55.695Z,19
2022-09-17T23:47:07.561Z,19
2022-09-17T23:52:19.191Z,19
2022-09-17T23:57:31.143Z,19
